Terminal Aerodrome Forecast
Issued by NWS

Home | Current Version | Previous Version | Text Only | Print | Product List | Glossary On
Versions: 1 2 3 4 5 6 7 8 9 10 11 12 13 14 15 16 17 18 19 20 21 22 23 24 25 26 27 28 29 30 31 32 33 34 35 36 37 38 39 40 41 42 43 44 45 46 47 48 49
000
FTUS43 KGLD 170204 AAA
TAFMCK
TAF AMD
KMCK 170204Z 1702/1724 VRB05KT P6SM SCT015 SCT200
     FM170400 10005KT P6SM SCT006 BKN010
     FM170600 10005KT P6SM -SHSN SCT003 BKN006
     FM171000 11005KT 4SM BR OVC003
     FM171500 12007KT P6SM SCT006 OVC012=

USA.gov is the U.S. government's official web portal to all federal, state and local government web resources and services.